Back to Top

Language: 

My Weather Underground Personal Weather Station Historical Data with Graphs...

Delerius Weather Station Historical Data
Daily Summary for November 19, 2017 Units:  English    Metric   Both
« Previous Day
Next Day »
Daily Weekly Monthly Yearly Custom
  High: Low: Average:
Temperature: 46.0 °F 32.2 °F 39.7 °F
Dew Point: 38.5 °F 28.1 °F 32.8 °F
Humidity: 86 % 61 % 77 %
Wind Speed: 9.0 mph 0.0 mph 3.2 mph
Wind Gust: 13.0 mph - -
Wind:- - West
Pressure: 30.22 in 30.05 in -
Precipitation: 0.00 in    
Historical Graphs
 
 
Tabular Data for November 19, 2017
Time Temperature Dew Point Pressure Wind Wind Speed Wind Gust Humidity Rainfall Rate (Hourly) solar Conditions
00:04 37.8 °F 32.5 °F 30.14 in WNW 5.0 mph 7.0 mph 81 % 0.00 in 0 W/m2
00:09 37.8 °F 32.5 °F 30.14 in WNW 6.0 mph 8.0 mph 81 % 0.00 in 0 W/m2
00:14 37.6 °F 32.3 °F 30.15 in WNW 5.0 mph 7.0 mph 81 % 0.00 in 0 W/m2
00:19 37.4 °F 32.1 °F 30.14 in WNW 6.0 mph 7.0 mph 81 % 0.00 in 0 W/m2
00:24 37.2 °F 31.9 °F 30.14 in WNW 5.0 mph 7.0 mph 81 % 0.00 in 0 W/m2
00:29 37.0 °F 31.8 °F 30.15 in WNW 6.0 mph 8.0 mph 81 % 0.00 in 0 W/m2
00:34 36.9 °F 31.6 °F 30.15 in WNW 6.0 mph 9.0 mph 81 % 0.00 in 0 W/m2
00:39 37.0 °F 31.8 °F 30.15 in WNW 7.0 mph 13.0 mph 81 % 0.00 in 0 W/m2
00:44 37.0 °F 31.8 °F 30.15 in WNW 7.0 mph 11.0 mph 81 % 0.00 in 0 W/m2
00:49 37.2 °F 31.6 °F 30.15 in WNW 7.0 mph 10.0 mph 80 % 0.00 in 0 W/m2
00:54 37.2 °F 31.6 °F 30.15 in WNW 7.0 mph 11.0 mph 80 % 0.00 in 0 W/m2
00:59 37.4 °F 31.5 °F 30.15 in WNW 8.0 mph 12.0 mph 79 % 0.00 in 0 W/m2
01:04 37.4 °F 31.5 °F 30.15 in WNW 8.0 mph 11.0 mph 79 % 0.00 in 0 W/m2
01:09 37.4 °F 31.5 °F 30.15 in WNW 8.0 mph 11.0 mph 79 % 0.00 in 0 W/m2
01:14 37.4 °F 31.5 °F 30.15 in WNW 8.0 mph 11.0 mph 79 % 0.00 in 0 W/m2
01:19 37.4 °F 31.5 °F 30.15 in WNW 9.0 mph 13.0 mph 79 % 0.00 in 0 W/m2
01:24 37.4 °F 31.5 °F 30.16 in WNW 7.0 mph 12.0 mph 79 % 0.00 in 0 W/m2
01:29 37.2 °F 31.3 °F 30.16 in WNW 8.0 mph 11.0 mph 79 % 0.00 in 0 W/m2
01:34 37.4 °F 31.5 °F 30.16 in NW 8.0 mph 12.0 mph 79 % 0.00 in 0 W/m2
01:39 37.4 °F 31.5 °F 30.16 in WNW 9.0 mph 13.0 mph 79 % 0.00 in 0 W/m2
01:44 37.2 °F 31.3 °F 30.16 in WNW 7.0 mph 11.0 mph 79 % 0.00 in 0 W/m2
01:49 37.2 °F 31.3 °F 30.15 in WNW 8.0 mph 11.0 mph 79 % 0.00 in 0 W/m2
01:50 37.2 °F 31.3 °F 30.15 in WNW 8.0 mph 10.0 mph 79 % 0.00 in 0 W/m2
01:55 37.2 °F 31.3 °F 30.16 in WNW 8.0 mph 11.0 mph 79 % 0.00 in 0 W/m2
02:00 37.2 °F 31.3 °F 30.16 in NW 7.0 mph 11.0 mph 79 % 0.00 in 0 W/m2
02:05 37.4 °F 31.5 °F 30.16 in NW 7.0 mph 12.0 mph 79 % 0.00 in 0 W/m2
02:10 37.2 °F 31.3 °F 30.16 in WNW 7.0 mph 12.0 mph 79 % 0.00 in 0 W/m2
02:15 37.2 °F 31.3 °F 30.16 in WNW 7.0 mph 11.0 mph 79 % 0.00 in 0 W/m2
02:20 37.2 °F 31.3 °F 30.16 in WNW 6.0 mph 8.0 mph 79 % 0.00 in 0 W/m2
02:25 37.2 °F 31.0 °F 30.16 in WNW 6.0 mph 8.0 mph 78 % 0.00 in 0 W/m2
02:30 37.0 °F 30.8 °F 30.16 in WNW 5.0 mph 9.0 mph 78 % 0.00 in 0 W/m2
02:35 36.9 °F 31.0 °F 30.16 in WNW 5.0 mph 8.0 mph 79 % 0.00 in 0 W/m2
02:40 36.7 °F 30.8 °F 30.16 in WNW 5.0 mph 6.0 mph 79 % 0.00 in 0 W/m2
02:45 36.3 °F 30.4 °F 30.16 in WNW 6.0 mph 8.0 mph 79 % 0.00 in 0 W/m2
02:46 36.3 °F 30.4 °F 30.16 in WNW 6.0 mph 8.0 mph 79 % 0.00 in 0 W/m2
02:51 36.1 °F 30.6 °F 30.16 in WNW 6.0 mph 9.0 mph 80 % 0.00 in 0 W/m2
02:56 36.0 °F 30.4 °F 30.16 in WNW 6.0 mph 8.0 mph 80 % 0.00 in 0 W/m2
03:01 36.0 °F 30.4 °F 30.16 in WNW 5.0 mph 7.0 mph 80 % 0.00 in 0 W/m2
03:06 35.8 °F 30.2 °F 30.16 in West 4.0 mph 6.0 mph 80 % 0.00 in 0 W/m2
03:11 35.6 °F 30.0 °F 30.16 in West 2.0 mph 6.0 mph 80 % 0.00 in 0 W/m2
03:17 35.2 °F 29.7 °F 30.16 in West 2.0 mph 5.0 mph 80 % 0.00 in 0 W/m2
03:22 35.1 °F 29.5 °F 30.16 in West 4.0 mph 5.0 mph 80 % 0.00 in 0 W/m2
03:25 34.9 °F 29.6 °F 30.17 in West 3.0 mph 5.0 mph 81 % 0.00 in 0 W/m2
03:26 34.9 °F 29.6 °F 30.17 in WNW 4.0 mph 6.0 mph 81 % 0.00 in 0 W/m2
03:29 34.7 °F 29.5 °F 30.17 in WNW 4.0 mph 6.0 mph 81 % 0.00 in 0 W/m2
03:31 34.5 °F 29.3 °F 30.17 in WNW 4.0 mph 6.0 mph 81 % 0.00 in 0 W/m2
03:36 34.5 °F 29.6 °F 30.17 in WNW 4.0 mph 6.0 mph 82 % 0.00 in 0 W/m2
03:41 34.3 °F 29.4 °F 30.17 in WNW 4.0 mph 6.0 mph 82 % 0.00 in 0 W/m2
03:46 34.3 °F 29.4 °F 30.17 in WNW 4.0 mph 6.0 mph 82 % 0.00 in 0 W/m2
03:51 34.2 °F 29.2 °F 30.17 in WNW 5.0 mph 7.0 mph 82 % 0.00 in 0 W/m2
03:56 34.2 °F 29.5 °F 30.17 in WNW 4.0 mph 6.0 mph 83 % 0.00 in 0 W/m2
04:01 34.2 °F 29.2 °F 30.17 in WNW 2.0 mph 5.0 mph 82 % 0.00 in 0 W/m2
04:06 34.0 °F 29.1 °F 30.17 in WNW 3.0 mph 5.0 mph 82 % 0.00 in 0 W/m2
04:11 33.8 °F 29.2 °F 30.17 in WNW 4.0 mph 5.0 mph 83 % 0.00 in 0 W/m2
04:16 33.6 °F 29.0 °F 30.17 in West 4.0 mph 5.0 mph 83 % 0.00 in 0 W/m2
04:21 33.4 °F 28.8 °F 30.17 in West 3.0 mph 5.0 mph 83 % 0.00 in 0 W/m2
04:26 33.4 °F 28.8 °F 30.17 in WNW 3.0 mph 4.0 mph 83 % 0.00 in 0 W/m2
04:31 33.3 °F 28.7 °F 30.17 in WNW 2.0 mph 5.0 mph 83 % 0.00 in 0 W/m2
04:51 33.1 °F 28.8 °F 30.18 in West 3.0 mph 5.0 mph 84 % 0.00 in 0 W/m2
04:56 32.9 °F 28.6 °F 30.18 in West 3.0 mph 5.0 mph 84 % 0.00 in 0 W/m2
05:01 32.7 °F 28.4 °F 30.18 in WNW 4.0 mph 5.0 mph 84 % 0.00 in 0 W/m2
05:11 33.1 °F 29.1 °F 30.18 in WNW 5.0 mph 7.0 mph 85 % 0.00 in 0 W/m2
05:16 33.4 °F 29.1 °F 30.18 in West 3.0 mph 5.0 mph 84 % 0.00 in 0 W/m2
05:21 33.3 °F 28.9 °F 30.18 in West 2.0 mph 5.0 mph 84 % 0.00 in 0 W/m2
05:31 33.1 °F 28.5 °F 30.18 in West 2.0 mph 4.0 mph 83 % 0.00 in 0 W/m2
05:36 32.9 °F 28.3 °F 30.17 in West 2.0 mph 3.0 mph 83 % 0.00 in 0 W/m2
05:41 32.7 °F 28.1 °F 30.17 in West 3.0 mph 5.0 mph 83 % 0.00 in 0 W/m2
05:56 32.4 °F 28.4 °F 30.18 in WNW 4.0 mph 5.0 mph 85 % 0.00 in 0 W/m2
06:01 32.2 °F 28.2 °F 30.18 in WNW 3.0 mph 5.0 mph 85 % 0.00 in 0 W/m2
06:07 32.2 °F 28.2 °F 30.18 in WNW 4.0 mph 5.0 mph 85 % 0.00 in 0 W/m2
06:12 32.2 °F 28.2 °F 30.18 in WNW 3.0 mph 5.0 mph 85 % 0.00 in 0 W/m2
06:17 32.2 °F 28.5 °F 30.19 in WNW 4.0 mph 6.0 mph 86 % 0.00 in 0 W/m2
06:22 32.2 °F 28.5 °F 30.19 in WNW 2.0 mph 4.0 mph 86 % 0.00 in 0 W/m2
06:27 32.2 °F 28.5 °F 30.19 in WNW 4.0 mph 6.0 mph 86 % 0.00 in 0 W/m2
06:32 32.4 °F 28.6 °F 30.19 in WNW 5.0 mph 7.0 mph 86 % 0.00 in 0 W/m2
06:37 32.5 °F 28.8 °F 30.19 in WNW 4.0 mph 6.0 mph 86 % 0.00 in 0 W/m2
06:42 32.7 °F 28.7 °F 30.19 in WNW 3.0 mph 5.0 mph 85 % 0.00 in 0 W/m2
06:47 32.7 °F 28.7 °F 30.19 in WNW 5.0 mph 8.0 mph 85 % 0.00 in 0 W/m2
06:57 33.4 °F 29.1 °F 30.18 in West 3.0 mph 6.0 mph 84 % 0.00 in 0 W/m2
07:07 33.4 °F 28.8 °F 30.19 in WNW 2.0 mph 5.0 mph 83 % 0.00 in 0 W/m2
07:12 33.1 °F 28.5 °F 30.19 in WNW 3.0 mph 4.0 mph 83 % 0.00 in 0 W/m2
07:17 33.1 °F 28.5 °F 30.19 in WNW 3.0 mph 4.0 mph 83 % 0.00 in 0 W/m2
07:27 32.9 °F 28.6 °F 30.19 in Calm   1.0 mph 84 % 0.00 in 0 W/m2
07:32 32.7 °F 28.4 °F 30.19 in Calm     84 % 0.00 in 5 W/m2
07:37 32.5 °F 28.2 °F 30.19 in WNW 2.0 mph 4.0 mph 84 % 0.00 in 7 W/m2
07:42 32.5 °F 28.2 °F 30.19 in WNW 3.0 mph 5.0 mph 84 % 0.00 in 9 W/m2
07:47 32.5 °F 28.2 °F 30.19 in WNW 4.0 mph 5.0 mph 84 % 0.00 in 12 W/m2
08:09 32.9 °F 28.9 °F 30.20 in WNW 4.0 mph 6.0 mph 85 % 0.00 in 26 W/m2
08:14 33.1 °F 29.1 °F 30.20 in WNW 4.0 mph 5.0 mph 85 % 0.00 in 28 W/m2
08:24 33.4 °F 29.1 °F 30.20 in WNW 1.0 mph 4.0 mph 84 % 0.00 in 25 W/m2
08:34 33.6 °F 29.3 °F 30.20 in WNW 3.0 mph 5.0 mph 84 % 0.00 in 26 W/m2
08:39 33.8 °F 29.5 °F 30.20 in NNW 1.0 mph 4.0 mph 84 % 0.00 in 28 W/m2
08:44 34.0 °F 29.7 °F 30.21 in NNW 1.0 mph 4.0 mph 84 % 0.00 in 32 W/m2
08:49 34.2 °F 29.8 °F 30.21 in NW 4.0 mph 7.0 mph 84 % 0.00 in 35 W/m2
08:54 34.9 °F 30.5 °F 30.21 in WNW 4.0 mph 8.0 mph 84 % 0.00 in 37 W/m2
08:59 35.4 °F 30.8 °F 30.21 in WNW 5.0 mph 7.0 mph 83 % 0.00 in 40 W/m2
09:04 36.0 °F 31.0 °F 30.21 in WNW 5.0 mph 7.0 mph 82 % 0.00 in 107 W/m2
09:14 37.0 °F 31.8 °F 30.21 in WNW 5.0 mph 7.0 mph 81 % 0.00 in 162 W/m2
09:19 37.9 °F 32.3 °F 30.21 in WNW 5.0 mph 8.0 mph 80 % 0.00 in 174 W/m2
09:24 38.8 °F 32.6 °F 30.21 in WNW 3.0 mph 6.0 mph 78 % 0.00 in 179 W/m2
09:29 39.6 °F 32.6 °F 30.22 in WNW 4.0 mph 7.0 mph 76 % 0.00 in 165 W/m2
09:34 40.1 °F 32.8 °F 30.21 in WNW 3.0 mph 6.0 mph 75 % 0.00 in 204 W/m2
09:39 40.6 °F 33.0 °F 30.22 in WNW 3.0 mph 5.0 mph 74 % 0.00 in 193 W/m2
09:44 41.2 °F 33.2 °F 30.22 in WNW 5.0 mph 8.0 mph 73 % 0.00 in 223 W/m2
09:49 41.7 °F 33.4 °F 30.22 in WNW 6.0 mph 8.0 mph 72 % 0.00 in 260 W/m2
09:59 42.6 °F 33.2 °F 30.21 in WNW 6.0 mph 9.0 mph 69 % 0.00 in 218 W/m2
10:04 43.0 °F 33.1 °F 30.21 in WNW 6.0 mph 8.0 mph 68 % 0.00 in 199 W/m2
10:09 43.2 °F 33.3 °F 30.22 in WNW 5.0 mph 8.0 mph 68 % 0.00 in 241 W/m2
10:19 43.5 °F 33.3 °F 30.22 in WNW 3.0 mph 7.0 mph 67 % 0.00 in 239 W/m2
10:29 44.2 °F 33.2 °F 30.22 in WNW 6.0 mph 9.0 mph 65 % 0.00 in 250 W/m2
10:34 44.4 °F 33.4 °F 30.22 in WNW 5.0 mph 8.0 mph 65 % 0.00 in 255 W/m2
10:44 44.8 °F 32.9 °F 30.22 in WNW 7.0 mph 12.0 mph 63 % 0.00 in 248 W/m2
10:49 45.0 °F 33.1 °F 30.22 in WNW 6.0 mph 9.0 mph 63 % 0.00 in 260 W/m2
10:54 45.1 °F 33.3 °F 30.22 in WNW 5.0 mph 8.0 mph 63 % 0.00 in 264 W/m2
11:00 45.3 °F 33.5 °F 30.22 in WNW 6.0 mph 10.0 mph 63 % 0.00 in 281 W/m2
11:10 45.9 °F 33.6 °F 30.22 in WNW 5.0 mph 8.0 mph 62 % 0.00 in 246 W/m2
11:15 46.0 °F 33.7 °F 30.22 in NW 4.0 mph 7.0 mph 62 % 0.00 in 251 W/m2
11:30 45.7 °F 33.4 °F 30.22 in NNW 2.0 mph 5.0 mph 62 % 0.00 in 183 W/m2
11:40 45.9 °F 33.2 °F 30.22 in NW 3.0 mph 6.0 mph 61 % 0.00 in 155 W/m2
11:45 45.7 °F 33.0 °F 30.22 in NW 3.0 mph 6.0 mph 61 % 0.00 in 118 W/m2
11:50 45.7 °F 33.0 °F 30.22 in WNW 3.0 mph 6.0 mph 61 % 0.00 in 105 W/m2
11:55 45.3 °F 33.1 °F 30.22 in WNW 5.0 mph 7.0 mph 62 % 0.00 in 107 W/m2
12:00 45.3 °F 33.5 °F 30.22 in WNW 1.0 mph 3.0 mph 63 % 0.00 in 139 W/m2
12:05 45.1 °F 33.3 °F 30.21 in NW 3.0 mph 7.0 mph 63 % 0.00 in 155 W/m2
12:10 45.1 °F 33.3 °F 30.21 in WNW 2.0 mph 5.0 mph 63 % 0.00 in 202 W/m2
12:15 45.3 °F 33.5 °F 30.21 in NW 3.0 mph 6.0 mph 63 % 0.00 in 151 W/m2
12:29 45.3 °F 33.5 °F 30.21 in NW 3.0 mph 6.0 mph 63 % 0.00 in 135 W/m2
12:34 45.3 °F 33.1 °F 30.21 in WNW 2.0 mph 5.0 mph 62 % 0.00 in 137 W/m2
12:50 45.5 °F 33.6 °F 30.21 in WNW 6.0 mph 6.0 mph 63 % 0.00 in 148 W/m2
12:55 45.7 °F 33.8 °F 30.21 in NW 3.0 mph 5.0 mph 63 % 0.00 in 139 W/m2
13:00 45.7 °F 33.4 °F 30.21 in NNW 3.0 mph 6.0 mph 62 % 0.00 in 142 W/m2
13:15 45.7 °F 33.8 °F 30.21 in NW 3.0 mph 6.0 mph 63 % 0.00 in 121 W/m2
13:21 45.7 °F 33.8 °F 30.21 in WNW 5.0 mph 8.0 mph 63 % 0.00 in 125 W/m2
13:26 45.7 °F 33.8 °F 30.21 in WNW 5.0 mph 9.0 mph 63 % 0.00 in 109 W/m2
13:36 45.5 °F 33.6 °F 30.21 in West 6.0 mph 8.0 mph 63 % 0.00 in 116 W/m2
13:41 45.3 °F 33.5 °F 30.21 in WNW 3.0 mph 6.0 mph 63 % 0.00 in 134 W/m2
13:46 45.3 °F 33.9 °F 30.21 in NW 2.0 mph 5.0 mph 64 % 0.00 in 132 W/m2
13:51 45.5 °F 34.0 °F 30.21 in WNW 3.0 mph 5.0 mph 64 % 0.00 in 162 W/m2
13:56 45.7 °F 33.8 °F 30.21 in WNW 4.0 mph 6.0 mph 63 % 0.00 in 132 W/m2
14:01 45.7 °F 33.8 °F 30.20 in WNW 2.0 mph 5.0 mph 63 % 0.00 in 125 W/m2
14:06 45.7 °F 34.2 °F 30.20 in WNW 1.0 mph 4.0 mph 64 % 0.00 in 114 W/m2
14:11 45.7 °F 34.2 °F 30.20 in WNW 2.0 mph 6.0 mph 64 % 0.00 in 116 W/m2
14:16 45.7 °F 34.6 °F 30.20 in WNW 2.0 mph 5.0 mph 65 % 0.00 in 109 W/m2
14:21 45.7 °F 34.6 °F 30.20 in WNW 2.0 mph 5.0 mph 65 % 0.00 in 107 W/m2
14:26 45.5 °F 34.0 °F 30.20 in WNW 4.0 mph 7.0 mph 64 % 0.00 in 104 W/m2
14:31 45.3 °F 33.9 °F 30.20 in WNW 4.0 mph 7.0 mph 64 % 0.00 in 98 W/m2
14:36 45.3 °F 33.9 °F 30.20 in WNW 3.0 mph 5.0 mph 64 % 0.00 in 120 W/m2
14:41 45.3 °F 33.5 °F 30.20 in West 3.0 mph 6.0 mph 63 % 0.00 in 84 W/m2
14:46 45.3 °F 33.5 °F 30.20 in WNW 4.0 mph 6.0 mph 63 % 0.00 in 88 W/m2
14:51 45.3 °F 33.5 °F 30.20 in WNW 2.0 mph 5.0 mph 63 % 0.00 in 69 W/m2
14:56 45.3 °F 33.5 °F 30.20 in West 3.0 mph 5.0 mph 63 % 0.00 in 58 W/m2
15:05 45.0 °F 33.5 °F 30.20 in West 2.0 mph 5.0 mph 64 % 0.00 in 42 W/m2
15:10 45.0 °F 33.9 °F 30.20 in West 2.0 mph 4.0 mph 65 % 0.00 in 42 W/m2
15:15 44.8 °F 34.1 °F 30.20 in West 1.0 mph 4.0 mph 66 % 0.00 in 39 W/m2
15:20 44.6 °F 33.9 °F 30.20 in West 4.0 mph 6.0 mph 66 % 0.00 in 33 W/m2
15:35 44.1 °F 33.8 °F 30.19 in West 1.0 mph 4.0 mph 67 % 0.00 in 19 W/m2
15:50 43.5 °F 34.0 °F 30.19 in West 4.0 mph 7.0 mph 69 % 0.00 in 5 W/m2
15:55 43.5 °F 34.4 °F 30.20 in West 2.0 mph 5.0 mph 70 % 0.00 in 0 W/m2
16:05 43.2 °F 34.4 °F 30.20 in WNW 2.0 mph 5.0 mph 71 % 0.00 in 0 W/m2
16:10 43.0 °F 34.2 °F 30.19 in WNW 3.0 mph 6.0 mph 71 % 0.00 in 0 W/m2
16:25 42.6 °F 34.2 °F 30.18 in WNW 1.0 mph 3.0 mph 72 % 0.00 in 0 W/m2
16:30 42.6 °F 34.6 °F 30.18 in WNW 2.0 mph 5.0 mph 73 % 0.00 in 0 W/m2
16:40 42.4 °F 34.4 °F 30.18 in WNW 1.0 mph 2.0 mph 73 % 0.00 in 0 W/m2
16:45 42.3 °F 34.2 °F 30.18 in Calm   2.0 mph 73 % 0.00 in 0 W/m2
16:50 42.3 °F 34.6 °F 30.19 in WNW 1.0 mph 3.0 mph 74 % 0.00 in 0 W/m2
16:55 42.3 °F 34.6 °F 30.19 in WNW 1.0 mph 3.0 mph 74 % 0.00 in 0 W/m2
17:00 42.1 °F 34.4 °F 30.19 in WNW 1.0 mph 2.0 mph 74 % 0.00 in 0 W/m2
17:05 42.1 °F 34.4 °F 30.19 in Calm   1.0 mph 74 % 0.00 in 0 W/m2
17:10 41.9 °F 34.6 °F 30.18 in Calm     75 % 0.00 in 0 W/m2
17:15 41.9 °F 34.6 °F 30.18 in Calm     75 % 0.00 in 0 W/m2
17:20 41.7 °F 34.4 °F 30.18 in Calm     75 % 0.00 in 0 W/m2
17:25 41.7 °F 34.4 °F 30.18 in Calm     75 % 0.00 in 0 W/m2
17:30 41.5 °F 34.5 °F 30.18 in Calm     76 % 0.00 in 0 W/m2
17:35 41.5 °F 34.5 °F 30.18 in Calm     76 % 0.00 in 0 W/m2
17:40 41.5 °F 34.5 °F 30.19 in Calm     76 % 0.00 in 0 W/m2
17:50 41.4 °F 34.4 °F 30.18 in Calm     76 % 0.00 in 0 W/m2
17:56 41.4 °F 34.7 °F 30.18 in Calm   1.0 mph 77 % 0.00 in 0 W/m2
18:06 41.4 °F 35.0 °F 30.18 in Calm     78 % 0.00 in 0 W/m2
18:11 41.4 °F 35.0 °F 30.18 in Calm     78 % 0.00 in 0 W/m2
18:22 41.4 °F 35.3 °F 30.17 in Calm     79 % 0.00 in 0 W/m2
18:27 41.4 °F 35.3 °F 30.18 in Calm     79 % 0.00 in 0 W/m2
18:37 41.4 °F 35.3 °F 30.18 in Calm     79 % 0.00 in 0 W/m2
18:42 41.4 °F 35.3 °F 30.17 in Calm     79 % 0.00 in 0 W/m2
18:47 41.4 °F 35.3 °F 30.17 in Calm     79 % 0.00 in 0 W/m2
18:52 41.4 °F 35.3 °F 30.18 in Calm     79 % 0.00 in 0 W/m2
18:57 41.4 °F 35.3 °F 30.17 in Calm     79 % 0.00 in 0 W/m2
19:02 41.4 °F 35.3 °F 30.17 in Calm     79 % 0.00 in 0 W/m2
19:07 41.4 °F 35.3 °F 30.17 in Calm     79 % 0.00 in 0 W/m2
19:12 41.4 °F 35.3 °F 30.17 in Calm     79 % 0.00 in 0 W/m2
19:17 41.5 °F 35.5 °F 30.16 in Calm     79 % 0.00 in 0 W/m2
19:22 41.5 °F 35.5 °F 30.16 in Calm     79 % 0.00 in 0 W/m2
19:25 41.5 °F 35.5 °F 30.16 in Calm     79 % 0.00 in 0 W/m2
19:32 41.5 °F 35.5 °F 30.16 in Calm     79 % 0.00 in 0 W/m2
19:42 41.4 °F 35.3 °F 30.17 in Calm     79 % 0.00 in 0 W/m2
19:52 41.2 °F 35.5 °F 30.16 in Calm     80 % 0.00 in 0 W/m2
19:57 41.2 °F 35.5 °F 30.16 in Calm     80 % 0.00 in 0 W/m2
20:02 41.2 °F 35.5 °F 30.16 in Calm     80 % 0.00 in 0 W/m2
20:12 41.4 °F 36.0 °F 30.16 in Calm     81 % 0.00 in 0 W/m2
20:17 41.4 °F 36.0 °F 30.16 in Calm     81 % 0.00 in 0 W/m2
20:22 41.4 °F 36.0 °F 30.16 in Calm     81 % 0.00 in 0 W/m2
20:27 41.5 °F 36.1 °F 30.16 in Calm     81 % 0.00 in 0 W/m2
20:32 41.7 °F 36.0 °F 30.16 in WSW 2.0 mph 6.0 mph 80 % 0.00 in 0 W/m2
20:42 42.1 °F 36.0 °F 30.16 in Calm   1.0 mph 79 % 0.00 in 0 W/m2
20:47 42.3 °F 36.2 °F 30.16 in Calm     79 % 0.00 in 0 W/m2
20:52 42.3 °F 36.2 °F 30.16 in Calm     79 % 0.00 in 0 W/m2
20:57 42.3 °F 36.2 °F 30.16 in Calm     79 % 0.00 in 0 W/m2
21:02 42.3 °F 36.2 °F 30.16 in Calm   1.0 mph 79 % 0.00 in 0 W/m2
21:12 42.3 °F 36.5 °F 30.15 in Calm   1.0 mph 80 % 0.00 in 0 W/m2
21:17 42.4 °F 36.7 °F 30.15 in SSW 2.0 mph 5.0 mph 80 % 0.00 in 0 W/m2
21:27 42.4 °F 36.7 °F 30.14 in SE 1.0 mph 5.0 mph 80 % 0.00 in 0 W/m2
21:32 42.4 °F 36.7 °F 30.14 in SE 1.0 mph 5.0 mph 80 % 0.00 in 0 W/m2
21:38 42.4 °F 36.7 °F 30.14 in Calm   4.0 mph 80 % 0.00 in 0 W/m2
21:43 42.4 °F 36.7 °F 30.13 in SE 1.0 mph 5.0 mph 80 % 0.00 in 0 W/m2
21:48 42.6 °F 36.9 °F 30.13 in SSE 3.0 mph 7.0 mph 80 % 0.00 in 0 W/m2
21:53 42.6 °F 36.9 °F 30.13 in SE 2.0 mph 5.0 mph 80 % 0.00 in 0 W/m2
21:58 42.6 °F 36.9 °F 30.12 in SSE 2.0 mph 6.0 mph 80 % 0.00 in 0 W/m2
22:03 42.6 °F 36.9 °F 30.12 in SSE 1.0 mph 4.0 mph 80 % 0.00 in 0 W/m2
22:13 42.6 °F 37.2 °F 30.12 in SSE 1.0 mph 5.0 mph 81 % 0.00 in 0 W/m2
22:18 42.8 °F 37.4 °F 30.12 in South 3.0 mph 6.0 mph 81 % 0.00 in 0 W/m2
22:28 42.8 °F 37.4 °F 30.11 in South 2.0 mph 4.0 mph 81 % 0.00 in 0 W/m2
22:33 42.8 °F 37.4 °F 30.11 in SSE 4.0 mph 7.0 mph 81 % 0.00 in 0 W/m2
22:43 43.0 °F 37.5 °F 30.11 in SSE 4.0 mph 6.0 mph 81 % 0.00 in 0 W/m2
22:48 43.0 °F 37.9 °F 30.10 in SSE 3.0 mph 7.0 mph 82 % 0.00 in 0 W/m2
22:53 43.0 °F 37.9 °F 30.10 in SSE 4.0 mph 7.0 mph 82 % 0.00 in 0 W/m2
22:58 43.2 °F 38.3 °F 30.10 in SSW 3.0 mph 7.0 mph 83 % 0.00 in 0 W/m2
23:03 43.3 °F 38.5 °F 30.09 in South 3.0 mph 5.0 mph 83 % 0.00 in 0 W/m2
23:13 43.3 °F 38.2 °F 30.08 in ESE 4.0 mph 5.0 mph 82 % 0.00 in 0 W/m2
23:18 43.3 °F 38.2 °F 30.08 in ESE 5.0 mph 7.0 mph 82 % 0.00 in 0 W/m2
23:28 43.2 °F 38.0 °F 30.07 in ESE 3.0 mph 7.0 mph 82 % 0.00 in 0 W/m2
23:33 43.0 °F 37.9 °F 30.07 in SE 3.0 mph 6.0 mph 82 % 0.00 in 0 W/m2
23:38 43.0 °F 37.9 °F 30.06 in ESE 2.0 mph 4.0 mph 82 % 0.00 in 0 W/m2
23:39 43.0 °F 37.9 °F 30.06 in ESE 2.0 mph 5.0 mph 82 % 0.00 in 0 W/m2
23:44 42.8 °F 37.7 °F 30.06 in ESE 2.0 mph 4.0 mph 82 % 0.00 in 0 W/m2
23:59 42.6 °F 38.1 °F 30.05 in ESE 3.0 mph 7.0 mph 84 % 0.00 in 0 W/m2
Delerius-Weather
Compliments of Weather Underground - 2 mb

Data updates at regular intervals.